Nakhon Phanom, Thailand

12:44 PM ICT on September 26, 2016 (GMT +0700)
Nakhon Phanom | | Change Station

Elev 584 ft 17.38 °N, 104.64 °E | Updated 14 minutes ago

Partly Cloudy
Partly Cloudy
90 °F
Feels Like 100 °F
N
2
Wind Variable Wind from Variable

Today
High -- | Low -- °F
--% Chance of Precip.
Yesterday
High -- | Low -- °F
Precip. -- in
Pressure 29.77 in
Visibility 6.2 miles
Clouds Few 3300 ft
Heat Index 100 °F
Dew Point 75 °F
Humidity 62%
Rainfall 0.00 in
Snow Depth Not available.
5:50 AM 5:53 PM
Waning Crescent, 21% visible
METAR VTUW 260530Z AUTO VRB02KT 9999 FEW033/// 32/24 Q1008 A2977
Pressure 29.77 in
Visibility 6.2 miles
Clouds Few 3300 ft
Heat Index 100 °F
Dew Point 75 °F
Humidity 62%
Rainfall 0.00 in
Snow Depth Not available.
5:50 AM 5:53 PM
Waning Crescent, 21% visible
METAR VTUW 260530Z AUTO VRB02KT 9999 FEW033/// 32/24 Q1008 A2977

10-Day Weather Forecast

No radar image for this location.
×

Almanac

Astronomy

Sep. 26, 2016 Rise Set
Actual Time
Civil Twilight
Nautical Twilight
Astronomical Twilight
Moon
Length of Visible Light
Length of Day
Tomorrow will be .
, % of the Moon is Illuminated

Today's Extremes

Country Highs Country Lows

Community

WunderPhotos

Upload Photos

1,941,852 photos uploaded!

WunderBlog® & News

Nearby

Air Quality

  Air Quality AQ Index Pollutant
Not available.

Snow Depth

Station Depth Elevation

Earthquake Activity

City Distance Mag. Time & Date
Minimum magnitude displayed is 2.5.

Coastal Water Temperatures

Place Temperature

Stations

Nearby Weather Stations

Station Location Temp. Windchill Dew Point Humidity Wind Precip. Elev Updated Type